sensor_id;sensor_type;location;lat;lon;timestamp;temperature;humidity
6439;DHT22;3252;52.540;13.290;2022-12-07T00:00:24;3.60;99.90
6439;DHT22;3252;52.540;13.290;2022-12-07T00:02:26;3.60;99.90
6439;DHT22;3252;52.540;13.290;2022-12-07T00:04:28;3.60;99.90
6439;DHT22;3252;52.540;13.290;2022-12-07T00:06:30;3.60;99.90
6439;DHT22;3252;52.540;13.290;2022-12-07T00:08:33;3.60;99.90
6439;DHT22;3252;52.540;13.290;2022-12-07T00:10:36;3.60;99.90
6439;DHT22;3252;52.540;13.290;2022-12-07T00:12:38;3.60;99.90
6439;DHT22;3252;52.540;13.290;2022-12-07T00:14:42;3.60;99.90
6439;DHT22;3252;52.540;13.290;2022-12-07T00:16:49;3.60;99.90
6439;DHT22;3252;52.540;13.290;2022-12-07T00:18:52;3.60;99.90
6439;DHT22;3252;52.540;13.290;2022-12-07T00:20:59;3.60;99.90
6439;DHT22;3252;52.540;13.290;2022-12-07T00:23:03;3.60;99.90
6439;DHT22;3252;52.540;13.290;2022-12-07T00:25:05;3.60;99.90
6439;DHT22;3252;52.540;13.290;2022-12-07T00:27:07;3.60;99.90
6439;DHT22;3252;52.540;13.290;2022-12-07T00:29:14;3.60;99.90
6439;DHT22;3252;52.540;13.290;2022-12-07T00:31:20;3.60;99.90
6439;DHT22;3252;52.540;13.290;2022-12-07T00:33:22;3.60;99.90
6439;DHT22;3252;52.540;13.290;2022-12-07T00:35:54;3.60;99.90
6439;DHT22;3252;52.540;13.290;2022-12-07T00:37:56;3.60;99.90
6439;DHT22;3252;52.540;13.290;2022-12-07T00:39:58;3.50;99.90
6439;DHT22;3252;52.540;13.290;2022-12-07T00:42:00;3.50;99.90
6439;DHT22;3252;52.540;13.290;2022-12-07T00:44:03;3.50;99.90
6439;DHT22;3252;52.540;13.290;2022-12-07T00:46:05;3.50;99.90
6439;DHT22;3252;52.540;13.290;2022-12-07T00:48:09;3.40;99.90
6439;DHT22;3252;52.540;13.290;2022-12-07T00:50:10;3.30;99.90
6439;DHT22;3252;52.540;13.290;2022-12-07T00:52:13;3.20;99.90
6439;DHT22;3252;52.540;13.290;2022-12-07T00:54:15;3.20;99.90
6439;DHT22;3252;52.540;13.290;2022-12-07T00:56:19;3.20;99.90
6439;DHT22;3252;52.540;13.290;2022-12-07T00:58:21;3.20;99.90
6439;DHT22;3252;52.540;13.290;2022-12-07T01:00:23;3.20;99.90
6439;DHT22;3252;52.540;13.290;2022-12-07T01:02:25;3.20;99.90
6439;DHT22;3252;52.540;13.290;2022-12-07T01:04:29;3.10;99.90
6439;DHT22;3252;52.540;13.290;2022-12-07T01:06:32;3.10;99.90
6439;DHT22;3252;52.540;13.290;2022-12-07T01:08:34;3.20;99.90
6439;DHT22;3252;52.540;13.290;2022-12-07T01:10:36;3.20;99.90
6439;DHT22;3252;52.540;13.290;2022-12-07T01:12:38;3.10;99.90
6439;DHT22;3252;52.540;13.290;2022-12-07T01:14:41;3.10;99.90
6439;DHT22;3252;52.540;13.290;2022-12-07T01:16:44;3.10;99.90
6439;DHT22;3252;52.540;13.290;2022-12-07T01:18:47;3.20;99.90
6439;DHT22;3252;52.540;13.290;2022-12-07T01:20:59;3.10;99.90
6439;DHT22;3252;52.540;13.290;2022-12-07T01:23:01;3.10;99.90
6439;DHT22;3252;52.540;13.290;2022-12-07T01:25:04;3.20;99.90
6439;DHT22;3252;52.540;13.290;2022-12-07T01:27:06;3.10;99.90
6439;DHT22;3252;52.540;13.290;2022-12-07T01:29:08;3.10;99.90
6439;DHT22;3252;52.540;13.290;2022-12-07T01:31:12;3.10;99.90
6439;DHT22;3252;52.540;13.290;2022-12-07T01:33:15;3.10;99.90
6439;DHT22;3252;52.540;13.290;2022-12-07T01:35:17;3.10;99.90
6439;DHT22;3252;52.540;13.290;2022-12-07T01:37:21;3.10;99.90
6439;DHT22;3252;52.540;13.290;2022-12-07T01:39:23;3.10;99.90
6439;DHT22;3252;52.540;13.290;2022-12-07T01:41:27;3.10;99.90
6439;DHT22;3252;52.540;13.290;2022-12-07T01:43:30;3.10;99.90
6439;DHT22;3252;52.540;13.290;2022-12-07T01:45:40;3.10;99.90
6439;DHT22;3252;52.540;13.290;2022-12-07T01:47:44;3.10;99.90
6439;DHT22;3252;52.540;13.290;2022-12-07T01:49:48;3.10;99.90
6439;DHT22;3252;52.540;13.290;2022-12-07T01:51:53;3.10;99.90
6439;DHT22;3252;52.540;13.290;2022-12-07T01:54:01;3.10;99.90
6439;DHT22;3252;52.540;13.290;2022-12-07T01:56:03;3.00;99.90
6439;DHT22;3252;52.540;13.290;2022-12-07T01:58:08;2.90;99.90
6439;DHT22;3252;52.540;13.290;2022-12-07T02:00:12;2.90;99.90
6439;DHT22;3252;52.540;13.290;2022-12-07T02:02:19;2.90;99.90
6439;DHT22;3252;52.540;13.290;2022-12-07T02:04:21;2.80;99.90
6439;DHT22;3252;52.540;13.290;2022-12-07T02:06:25;2.80;99.90
6439;DHT22;3252;52.540;13.290;2022-12-07T02:08:27;2.80;99.90
6439;DHT22;3252;52.540;13.290;2022-12-07T02:10:32;2.70;99.90
6439;DHT22;3252;52.540;13.290;2022-12-07T02:12:34;2.70;99.90
6439;DHT22;3252;52.540;13.290;2022-12-07T02:14:36;2.60;99.90
6439;DHT22;3252;52.540;13.290;2022-12-07T02:16:47;2.40;99.90
6439;DHT22;3252;52.540;13.290;2022-12-07T02:19:03;2.40;99.90
6439;DHT22;3252;52.540;13.290;2022-12-07T02:21:13;2.50;99.90
6439;DHT22;3252;52.540;13.290;2022-12-07T02:23:41;2.30;99.90
6439;DHT22;3252;52.540;13.290;2022-12-07T02:26:08;2.30;99.90
6439;DHT22;3252;52.540;13.290;2022-12-07T02:28:20;2.30;99.90
6439;DHT22;3252;52.540;13.290;2022-12-07T02:30:33;2.40;99.90
6439;DHT22;3252;52.540;13.290;2022-12-07T02:33:00;2.40;99.90
6439;DHT22;3252;52.540;13.290;2022-12-07T02:35:06;2.40;99.90
6439;DHT22;3252;52.540;13.290;2022-12-07T02:37:17;2.40;99.90
6439;DHT22;3252;52.540;13.290;2022-12-07T02:39:26;2.30;99.90
6439;DHT22;3252;52.540;13.290;2022-12-07T02:41:40;2.30;99.90
6439;DHT22;3252;52.540;13.290;2022-12-07T02:43:49;2.20;99.90
6439;DHT22;3252;52.540;13.290;2022-12-07T02:45:57;2.20;99.90
6439;DHT22;3252;52.540;13.290;2022-12-07T02:48:02;2.20;99.90
6439;DHT22;3252;52.540;13.290;2022-12-07T02:50:07;2.10;99.90
6439;DHT22;3252;52.540;13.290;2022-12-07T02:52:09;2.20;99.90
6439;DHT22;3252;52.540;13.290;2022-12-07T02:54:12;2.00;99.90
6439;DHT22;3252;52.540;13.290;2022-12-07T02:56:20;2.00;99.90
6439;DHT22;3252;52.540;13.290;2022-12-07T02:58:35;2.00;99.90
6439;DHT22;3252;52.540;13.290;2022-12-07T03:00:48;2.00;99.90
6439;DHT22;3252;52.540;13.290;2022-12-07T03:03:00;2.00;99.90
6439;DHT22;3252;52.540;13.290;2022-12-07T03:05:17;2.00;99.90
6439;DHT22;3252;52.540;13.290;2022-12-07T03:07:28;2.00;99.90
6439;DHT22;3252;52.540;13.290;2022-12-07T03:09:36;2.00;99.90
6439;DHT22;3252;52.540;13.290;2022-12-07T03:11:43;2.10;99.90
6439;DHT22;3252;52.540;13.290;2022-12-07T03:13:53;2.20;99.90
6439;DHT22;3252;52.540;13.290;2022-12-07T03:16:02;2.20;99.90
6439;DHT22;3252;52.540;13.290;2022-12-07T03:18:10;2.30;99.90
6439;DHT22;3252;52.540;13.290;2022-12-07T03:20:16;2.20;99.90
6439;DHT22;3252;52.540;13.290;2022-12-07T03:22:21;2.30;99.90
6439;DHT22;3252;52.540;13.290;2022-12-07T03:24:27;2.20;99.90
6439;DHT22;3252;52.540;13.290;2022-12-07T03:26:32;2.10;99.90
6439;DHT22;3252;52.540;13.290;2022-12-07T03:28:41;2.20;99.90
6439;DHT22;3252;52.540;13.290;2022-12-07T03:30:47;2.20;99.90
6439;DHT22;3252;52.540;13.290;2022-12-07T03:32:53;2.30;99.90
6439;DHT22;3252;52.540;13.290;2022-12-07T03:35:03;2.30;99.90
6439;DHT22;3252;52.540;13.290;2022-12-07T03:37:11;2.30;99.90
6439;DHT22;3252;52.540;13.290;2022-12-07T03:39:22;2.30;99.90
6439;DHT22;3252;52.540;13.290;2022-12-07T03:41:28;2.40;99.90
6439;DHT22;3252;52.540;13.290;2022-12-07T03:43:31;2.40;99.90
6439;DHT22;3252;52.540;13.290;2022-12-07T03:45:38;2.40;99.90
6439;DHT22;3252;52.540;13.290;2022-12-07T03:47:46;2.40;99.90
6439;DHT22;3252;52.540;13.290;2022-12-07T03:49:51;2.50;99.90
6439;DHT22;3252;52.540;13.290;2022-12-07T03:52:00;2.50;99.90
6439;DHT22;3252;52.540;13.290;2022-12-07T03:54:09;2.40;99.90
6439;DHT22;3252;52.540;13.290;2022-12-07T03:56:12;2.40;99.90
6439;DHT22;3252;52.540;13.290;2022-12-07T03:58:18;2.40;99.90
6439;DHT22;3252;52.540;13.290;2022-12-07T04:00:20;2.40;99.90
6439;DHT22;3252;52.540;13.290;2022-12-07T04:02:24;2.40;99.90
6439;DHT22;3252;52.540;13.290;2022-12-07T04:04:28;2.50;99.90
6439;DHT22;3252;52.540;13.290;2022-12-07T04:06:30;2.50;99.90
6439;DHT22;3252;52.540;13.290;2022-12-07T04:08:35;2.50;99.90
6439;DHT22;3252;52.540;13.290;2022-12-07T04:10:37;2.50;99.90
6439;DHT22;3252;52.540;13.290;2022-12-07T04:12:40;2.50;99.90
6439;DHT22;3252;52.540;13.290;2022-12-07T04:14:42;2.50;99.90
6439;DHT22;3252;52.540;13.290;2022-12-07T04:16:44;2.50;99.90
6439;DHT22;3252;52.540;13.290;2022-12-07T04:18:46;2.50;99.90
6439;DHT22;3252;52.540;13.290;2022-12-07T04:20:48;2.50;99.90
6439;DHT22;3252;52.540;13.290;2022-12-07T04:22:50;2.40;99.90
6439;DHT22;3252;52.540;13.290;2022-12-07T04:24:54;2.50;99.90
6439;DHT22;3252;52.540;13.290;2022-12-07T04:26:56;2.50;99.90
6439;DHT22;3252;52.540;13.290;2022-12-07T04:28:58;2.50;99.90
6439;DHT22;3252;52.540;13.290;2022-12-07T04:31:01;2.60;99.90
6439;DHT22;3252;52.540;13.290;2022-12-07T04:33:03;2.60;99.90
6439;DHT22;3252;52.540;13.290;2022-12-07T04:35:05;2.60;99.90
6439;DHT22;3252;52.540;13.290;2022-12-07T04:37:08;2.50;99.90
6439;DHT22;3252;52.540;13.290;2022-12-07T04:39:17;2.40;99.90
6439;DHT22;3252;52.540;13.290;2022-12-07T04:41:21;2.40;99.90
6439;DHT22;3252;52.540;13.290;2022-12-07T04:43:27;2.50;99.90
6439;DHT22;3252;52.540;13.290;2022-12-07T04:45:29;2.50;99.90
6439;DHT22;3252;52.540;13.290;2022-12-07T04:47:31;2.50;99.90
6439;DHT22;3252;52.540;13.290;2022-12-07T04:49:34;2.60;99.90
6439;DHT22;3252;52.540;13.290;2022-12-07T04:51:36;2.60;99.90
6439;DHT22;3252;52.540;13.290;2022-12-07T04:53:38;2.70;99.90
6439;DHT22;3252;52.540;13.290;2022-12-07T04:55:40;2.70;99.90
6439;DHT22;3252;52.540;13.290;2022-12-07T04:57:44;2.70;99.90
6439;DHT22;3252;52.540;13.290;2022-12-07T04:59:46;2.70;99.90
6439;DHT22;3252;52.540;13.290;2022-12-07T05:01:48;2.70;99.90
6439;DHT22;3252;52.540;13.290;2022-12-07T05:03:50;2.80;99.90
6439;DHT22;3252;52.540;13.290;2022-12-07T05:05:53;2.80;99.90
6439;DHT22;3252;52.540;13.290;2022-12-07T05:07:55;2.90;99.90
6439;DHT22;3252;52.540;13.290;2022-12-07T05:09:57;2.90;99.90
6439;DHT22;3252;52.540;13.290;2022-12-07T05:11:59;2.90;99.90
6439;DHT22;3252;52.540;13.290;2022-12-07T05:14:03;2.90;99.90
6439;DHT22;3252;52.540;13.290;2022-12-07T05:16:06;3.00;99.90
6439;DHT22;3252;52.540;13.290;2022-12-07T05:18:09;3.00;99.90
6439;DHT22;3252;52.540;13.290;2022-12-07T05:20:13;3.00;99.90
6439;DHT22;3252;52.540;13.290;2022-12-07T05:22:16;3.00;99.90
6439;DHT22;3252;52.540;13.290;2022-12-07T05:24:18;3.00;99.90
6439;DHT22;3252;52.540;13.290;2022-12-07T05:26:21;3.00;99.90
6439;DHT22;3252;52.540;13.290;2022-12-07T05:28:23;3.00;99.90
6439;DHT22;3252;52.540;13.290;2022-12-07T05:30:28;3.00;99.90
6439;DHT22;3252;52.540;13.290;2022-12-07T05:32:31;3.10;99.90
6439;DHT22;3252;52.540;13.290;2022-12-07T05:34:33;3.10;99.90
6439;DHT22;3252;52.540;13.290;2022-12-07T05:36:35;3.00;99.90
6439;DHT22;3252;52.540;13.290;2022-12-07T05:38:38;3.00;99.90
6439;DHT22;3252;52.540;13.290;2022-12-07T05:40:40;3.00;99.90
6439;DHT22;3252;52.540;13.290;2022-12-07T05:42:42;3.10;99.90
6439;DHT22;3252;52.540;13.290;2022-12-07T05:44:45;3.00;99.90
6439;DHT22;3252;52.540;13.290;2022-12-07T05:46:49;3.00;99.90
6439;DHT22;3252;52.540;13.290;2022-12-07T05:48:51;3.00;99.90
6439;DHT22;3252;52.540;13.290;2022-12-07T05:50:53;3.00;99.90
6439;DHT22;3252;52.540;13.290;2022-12-07T05:52:56;3.10;99.90
6439;DHT22;3252;52.540;13.290;2022-12-07T05:54:58;3.10;99.90
6439;DHT22;3252;52.540;13.290;2022-12-07T05:57:00;3.10;99.90
6439;DHT22;3252;52.540;13.290;2022-12-07T05:59:03;3.20;99.90
6439;DHT22;3252;52.540;13.290;2022-12-07T06:01:22;3.20;99.90
6439;DHT22;3252;52.540;13.290;2022-12-07T06:03:26;3.20;99.90
6439;DHT22;3252;52.540;13.290;2022-12-07T06:05:29;3.20;99.90
6439;DHT22;3252;52.540;13.290;2022-12-07T06:07:31;3.30;99.90
6439;DHT22;3252;52.540;13.290;2022-12-07T06:09:34;3.30;99.90
6439;DHT22;3252;52.540;13.290;2022-12-07T06:11:36;3.30;99.90
6439;DHT22;3252;52.540;13.290;2022-12-07T06:13:56;3.30;99.90
6439;DHT22;3252;52.540;13.290;2022-12-07T06:15:58;3.30;99.90
6439;DHT22;3252;52.540;13.290;2022-12-07T06:18:00;3.20;99.90
6439;DHT22;3252;52.540;13.290;2022-12-07T06:20:05;3.20;99.90
6439;DHT22;3252;52.540;13.290;2022-12-07T06:22:08;3.20;99.90
6439;DHT22;3252;52.540;13.290;2022-12-07T06:24:13;3.30;99.90
6439;DHT22;3252;52.540;13.290;2022-12-07T06:26:16;3.30;99.90
6439;DHT22;3252;52.540;13.290;2022-12-07T06:28:18;3.30;99.90
6439;DHT22;3252;52.540;13.290;2022-12-07T06:30:20;3.30;99.90
6439;DHT22;3252;52.540;13.290;2022-12-07T06:32:22;3.30;99.90
6439;DHT22;3252;52.540;13.290;2022-12-07T06:34:25;3.30;99.90
6439;DHT22;3252;52.540;13.290;2022-12-07T06:36:29;3.30;99.90
6439;DHT22;3252;52.540;13.290;2022-12-07T06:38:31;3.30;99.90
6439;DHT22;3252;52.540;13.290;2022-12-07T06:40:33;3.30;99.90
6439;DHT22;3252;52.540;13.290;2022-12-07T06:42:35;3.30;99.90
6439;DHT22;3252;52.540;13.290;2022-12-07T06:44:38;3.40;99.90
6439;DHT22;3252;52.540;13.290;2022-12-07T06:46:41;3.50;99.90
6439;DHT22;3252;52.540;13.290;2022-12-07T06:48:43;3.40;99.90
6439;DHT22;3252;52.540;13.290;2022-12-07T06:50:46;3.50;99.90
6439;DHT22;3252;52.540;13.290;2022-12-07T06:52:50;3.50;99.90
6439;DHT22;3252;52.540;13.290;2022-12-07T06:54:53;3.50;99.90
6439;DHT22;3252;52.540;13.290;2022-12-07T06:56:57;3.60;99.90
6439;DHT22;3252;52.540;13.290;2022-12-07T06:58:59;3.60;99.90
6439;DHT22;3252;52.540;13.290;2022-12-07T07:01:02;3.70;99.90
6439;DHT22;3252;52.540;13.290;2022-12-07T07:03:05;3.60;99.90
6439;DHT22;3252;52.540;13.290;2022-12-07T07:05:08;3.60;99.90
6439;DHT22;3252;52.540;13.290;2022-12-07T07:07:11;3.70;99.90
6439;DHT22;3252;52.540;13.290;2022-12-07T07:09:14;3.70;99.90
6439;DHT22;3252;52.540;13.290;2022-12-07T07:11:18;3.70;99.90
6439;DHT22;3252;52.540;13.290;2022-12-07T07:13:20;3.80;99.90
6439;DHT22;3252;52.540;13.290;2022-12-07T07:15:22;3.80;99.90
6439;DHT22;3252;52.540;13.290;2022-12-07T07:17:25;3.80;99.90
6439;DHT22;3252;52.540;13.290;2022-12-07T07:19:29;3.90;99.90
6439;DHT22;3252;52.540;13.290;2022-12-07T07:21:31;3.90;99.90
6439;DHT22;3252;52.540;13.290;2022-12-07T07:23:33;3.90;99.90
6439;DHT22;3252;52.540;13.290;2022-12-07T07:25:46;3.90;99.90
6439;DHT22;3252;52.540;13.290;2022-12-07T07:27:50;3.90;99.90
6439;DHT22;3252;52.540;13.290;2022-12-07T07:29:52;3.90;99.90
6439;DHT22;3252;52.540;13.290;2022-12-07T07:31:55;3.90;99.90
6439;DHT22;3252;52.540;13.290;2022-12-07T07:33:57;3.90;99.90
6439;DHT22;3252;52.540;13.290;2022-12-07T07:35:59;4.00;99.90
6439;DHT22;3252;52.540;13.290;2022-12-07T07:38:02;3.90;99.90
6439;DHT22;3252;52.540;13.290;2022-12-07T07:40:06;3.90;99.90
6439;DHT22;3252;52.540;13.290;2022-12-07T07:42:10;3.90;99.90
6439;DHT22;3252;52.540;13.290;2022-12-07T07:44:13;3.90;99.90
6439;DHT22;3252;52.540;13.290;2022-12-07T07:46:17;4.00;99.90
6439;DHT22;3252;52.540;13.290;2022-12-07T07:48:20;4.00;99.90
6439;DHT22;3252;52.540;13.290;2022-12-07T07:50:23;4.00;99.90
6439;DHT22;3252;52.540;13.290;2022-12-07T07:52:28;4.00;99.90
6439;DHT22;3252;52.540;13.290;2022-12-07T07:54:30;4.00;99.90
6439;DHT22;3252;52.540;13.290;2022-12-07T07:56:32;4.00;99.90
6439;DHT22;3252;52.540;13.290;2022-12-07T07:58:36;4.00;99.90
6439;DHT22;3252;52.540;13.290;2022-12-07T08:00:40;4.10;99.90
6439;DHT22;3252;52.540;13.290;2022-12-07T08:02:43;4.00;99.90
6439;DHT22;3252;52.540;13.290;2022-12-07T08:04:46;4.10;99.90
6439;DHT22;3252;52.540;13.290;2022-12-07T08:06:48;4.10;99.90
6439;DHT22;3252;52.540;13.290;2022-12-07T08:08:52;4.10;99.90
6439;DHT22;3252;52.540;13.290;2022-12-07T08:10:54;4.10;99.90
6439;DHT22;3252;52.540;13.290;2022-12-07T08:12:56;4.10;99.90
6439;DHT22;3252;52.540;13.290;2022-12-07T08:15:19;4.10;99.90
6439;DHT22;3252;52.540;13.290;2022-12-07T08:17:23;4.20;99.90
6439;DHT22;3252;52.540;13.290;2022-12-07T08:19:26;4.20;99.90
6439;DHT22;3252;52.540;13.290;2022-12-07T08:21:30;4.20;99.90
6439;DHT22;3252;52.540;13.290;2022-12-07T08:23:34;4.20;99.90
6439;DHT22;3252;52.540;13.290;2022-12-07T08:25:36;4.30;99.90
6439;DHT22;3252;52.540;13.290;2022-12-07T08:27:39;4.30;99.90
6439;DHT22;3252;52.540;13.290;2022-12-07T08:29:44;4.30;99.90
6439;DHT22;3252;52.540;13.290;2022-12-07T08:31:47;4.20;99.90
6439;DHT22;3252;52.540;13.290;2022-12-07T08:33:49;4.30;99.90
6439;DHT22;3252;52.540;13.290;2022-12-07T08:35:51;4.30;99.90
6439;DHT22;3252;52.540;13.290;2022-12-07T08:37:54;4.20;99.90
6439;DHT22;3252;52.540;13.290;2022-12-07T08:39:58;4.20;99.90
6439;DHT22;3252;52.540;13.290;2022-12-07T08:42:00;4.30;99.90
6439;DHT22;3252;52.540;13.290;2022-12-07T08:44:03;4.30;99.90
6439;DHT22;3252;52.540;13.290;2022-12-07T08:46:08;4.20;99.90
6439;DHT22;3252;52.540;13.290;2022-12-07T08:48:14;4.20;99.90
6439;DHT22;3252;52.540;13.290;2022-12-07T08:50:23;4.30;99.90
6439;DHT22;3252;52.540;13.290;2022-12-07T08:52:26;4.30;99.90
6439;DHT22;3252;52.540;13.290;2022-12-07T08:54:28;4.30;99.90
6439;DHT22;3252;52.540;13.290;2022-12-07T08:56:31;4.30;99.90
6439;DHT22;3252;52.540;13.290;2022-12-07T08:58:36;4.40;99.90
6439;DHT22;3252;52.540;13.290;2022-12-07T09:00:42;4.40;99.90
6439;DHT22;3252;52.540;13.290;2022-12-07T09:02:45;4.40;99.90
6439;DHT22;3252;52.540;13.290;2022-12-07T09:04:50;4.40;99.90
6439;DHT22;3252;52.540;13.290;2022-12-07T09:07:18;4.40;99.90
6439;DHT22;3252;52.540;13.290;2022-12-07T09:09:21;4.40;99.90
6439;DHT22;3252;52.540;13.290;2022-12-07T09:11:24;4.40;99.90
6439;DHT22;3252;52.540;13.290;2022-12-07T09:13:26;4.40;99.90
6439;DHT22;3252;52.540;13.290;2022-12-07T09:15:29;4.30;99.90
6439;DHT22;3252;52.540;13.290;2022-12-07T09:17:33;4.20;99.90
6439;DHT22;3252;52.540;13.290;2022-12-07T09:19:37;4.20;99.90
6439;DHT22;3252;52.540;13.290;2022-12-07T09:21:41;4.20;99.90
6439;DHT22;3252;52.540;13.290;2022-12-07T09:23:44;4.20;99.90
6439;DHT22;3252;52.540;13.290;2022-12-07T09:25:50;4.20;99.90
6439;DHT22;3252;52.540;13.290;2022-12-07T09:27:56;4.20;99.90
6439;DHT22;3252;52.540;13.290;2022-12-07T09:30:06;4.20;99.90
6439;DHT22;3252;52.540;13.290;2022-12-07T09:32:09;4.20;99.90
6439;DHT22;3252;52.540;13.290;2022-12-07T09:34:11;4.30;99.90
6439;DHT22;3252;52.540;13.290;2022-12-07T09:36:15;4.20;99.90
6439;DHT22;3252;52.540;13.290;2022-12-07T09:38:20;4.20;99.90
6439;DHT22;3252;52.540;13.290;2022-12-07T09:40:23;4.10;99.90
6439;DHT22;3252;52.540;13.290;2022-12-07T09:42:29;4.10;99.90
6439;DHT22;3252;52.540;13.290;2022-12-07T09:44:36;4.20;99.90
6439;DHT22;3252;52.540;13.290;2022-12-07T09:46:43;4.20;99.90
6439;DHT22;3252;52.540;13.290;2022-12-07T09:48:46;4.20;99.90
6439;DHT22;3252;52.540;13.290;2022-12-07T09:50:50;4.20;99.90
6439;DHT22;3252;52.540;13.290;2022-12-07T09:53:26;4.20;99.90
6439;DHT22;3252;52.540;13.290;2022-12-07T09:55:33;4.10;99.90
6439;DHT22;3252;52.540;13.290;2022-12-07T09:57:40;4.10;99.90
6439;DHT22;3252;52.540;13.290;2022-12-07T09:59:56;4.10;99.90
6439;DHT22;3252;52.540;13.290;2022-12-07T10:02:24;4.10;99.90
6439;DHT22;3252;52.540;13.290;2022-12-07T10:04:29;4.20;99.90
6439;DHT22;3252;52.540;13.290;2022-12-07T10:06:31;4.20;99.90
6439;DHT22;3252;52.540;13.290;2022-12-07T10:08:34;4.20;99.90
6439;DHT22;3252;52.540;13.290;2022-12-07T10:10:37;4.10;99.90
6439;DHT22;3252;52.540;13.290;2022-12-07T10:12:58;4.20;99.90
6439;DHT22;3252;52.540;13.290;2022-12-07T10:15:03;4.20;99.90
6439;DHT22;3252;52.540;13.290;2022-12-07T10:17:26;4.10;99.90
6439;DHT22;3252;52.540;13.290;2022-12-07T10:19:32;4.10;99.90
6439;DHT22;3252;52.540;13.290;2022-12-07T10:21:34;4.10;99.90
6439;DHT22;3252;52.540;13.290;2022-12-07T10:23:39;4.20;99.90
6439;DHT22;3252;52.540;13.290;2022-12-07T10:25:41;4.20;99.90
6439;DHT22;3252;52.540;13.290;2022-12-07T10:27:44;4.20;99.90
6439;DHT22;3252;52.540;13.290;2022-12-07T10:30:07;4.30;99.90
6439;DHT22;3252;52.540;13.290;2022-12-07T10:32:31;4.30;99.90
6439;DHT22;3252;52.540;13.290;2022-12-07T10:34:36;4.40;99.90
6439;DHT22;3252;52.540;13.290;2022-12-07T10:36:38;4.40;99.90
6439;DHT22;3252;52.540;13.290;2022-12-07T10:38:46;4.30;99.90
6439;DHT22;3252;52.540;13.290;2022-12-07T10:41:03;4.30;99.90
6439;DHT22;3252;52.540;13.290;2022-12-07T10:43:17;4.40;99.90
6439;DHT22;3252;52.540;13.290;2022-12-07T10:45:20;4.40;99.90
6439;DHT22;3252;52.540;13.290;2022-12-07T10:47:31;4.40;99.90
6439;DHT22;3252;52.540;13.290;2022-12-07T10:49:55;4.40;99.90
6439;DHT22;3252;52.540;13.290;2022-12-07T10:52:08;4.40;99.90
6439;DHT22;3252;52.540;13.290;2022-12-07T10:54:21;4.40;99.90
6439;DHT22;3252;52.540;13.290;2022-12-07T10:56:43;4.40;99.90
6439;DHT22;3252;52.540;13.290;2022-12-07T10:58:57;4.50;99.90
6439;DHT22;3252;52.540;13.290;2022-12-07T11:01:04;4.50;99.90
6439;DHT22;3252;52.540;13.290;2022-12-07T11:03:27;4.50;99.90
6439;DHT22;3252;52.540;13.290;2022-12-07T11:05:39;4.50;99.90
6439;DHT22;3252;52.540;13.290;2022-12-07T11:07:51;4.40;99.90
6439;DHT22;3252;52.540;13.290;2022-12-07T11:10:07;4.40;99.90
6439;DHT22;3252;52.540;13.290;2022-12-07T11:12:15;4.40;99.90
6439;DHT22;3252;52.540;13.290;2022-12-07T11:14:26;4.50;99.90
6439;DHT22;3252;52.540;13.290;2022-12-07T11:16:47;4.50;99.90
6439;DHT22;3252;52.540;13.290;2022-12-07T11:19:03;4.50;99.90
6439;DHT22;3252;52.540;13.290;2022-12-07T11:21:10;4.50;99.90
6439;DHT22;3252;52.540;13.290;2022-12-07T11:23:21;4.50;99.90
6439;DHT22;3252;52.540;13.290;2022-12-07T11:25:32;4.60;99.90
6439;DHT22;3252;52.540;13.290;2022-12-07T11:27:43;4.70;99.90
6439;DHT22;3252;52.540;13.290;2022-12-07T11:32:17;4.70;99.90
6439;DHT22;3252;52.540;13.290;2022-12-07T11:34:26;4.80;99.90
6439;DHT22;3252;52.540;13.290;2022-12-07T11:36:36;4.80;99.90
6439;DHT22;3252;52.540;13.290;2022-12-07T11:38:43;4.90;99.90
6439;DHT22;3252;52.540;13.290;2022-12-07T11:40:49;5.00;99.90
6439;DHT22;3252;52.540;13.290;2022-12-07T11:42:57;4.90;99.90
6439;DHT22;3252;52.540;13.290;2022-12-07T11:45:02;4.90;99.90
6439;DHT22;3252;52.540;13.290;2022-12-07T11:47:07;4.90;99.90
6439;DHT22;3252;52.540;13.290;2022-12-07T11:49:17;4.80;99.90
6439;DHT22;3252;52.540;13.290;2022-12-07T11:51:21;4.90;99.90
6439;DHT22;3252;52.540;13.290;2022-12-07T11:53:27;4.80;99.90
6439;DHT22;3252;52.540;13.290;2022-12-07T11:55:41;4.80;99.90
6439;DHT22;3252;52.540;13.290;2022-12-07T11:57:48;4.80;99.90
6439;DHT22;3252;52.540;13.290;2022-12-07T11:59:56;4.90;99.90
6439;DHT22;3252;52.540;13.290;2022-12-07T12:02:11;4.90;99.90
6439;DHT22;3252;52.540;13.290;2022-12-07T12:04:26;4.80;99.90
6439;DHT22;3252;52.540;13.290;2022-12-07T12:06:29;4.90;99.90
6439;DHT22;3252;52.540;13.290;2022-12-07T12:08:34;4.90;99.90
6439;DHT22;3252;52.540;13.290;2022-12-07T12:10:45;5.00;99.90
6439;DHT22;3252;52.540;13.290;2022-12-07T12:13:11;5.00;99.90
6439;DHT22;3252;52.540;13.290;2022-12-07T12:15:22;5.10;99.90
6439;DHT22;3252;52.540;13.290;2022-12-07T12:17:52;5.00;99.90
6439;DHT22;3252;52.540;13.290;2022-12-07T12:20:01;5.10;99.90
6439;DHT22;3252;52.540;13.290;2022-12-07T12:22:11;5.10;99.90
6439;DHT22;3252;52.540;13.290;2022-12-07T12:24:16;5.20;99.90
6439;DHT22;3252;52.540;13.290;2022-12-07T12:26:21;5.20;99.90
6439;DHT22;3252;52.540;13.290;2022-12-07T12:28:29;5.20;99.90
6439;DHT22;3252;52.540;13.290;2022-12-07T12:30:36;5.20;99.90
6439;DHT22;3252;52.540;13.290;2022-12-07T12:32:40;5.30;99.90
6439;DHT22;3252;52.540;13.290;2022-12-07T12:35:00;5.20;99.90
6439;DHT22;3252;52.540;13.290;2022-12-07T12:37:02;5.20;99.90
6439;DHT22;3252;52.540;13.290;2022-12-07T12:39:10;5.20;99.90
6439;DHT22;3252;52.540;13.290;2022-12-07T12:41:52;5.10;99.90
6439;DHT22;3252;52.540;13.290;2022-12-07T12:46:59;5.10;99.90
6439;DHT22;3252;52.540;13.290;2022-12-07T12:51:45;5.00;99.90
6439;DHT22;3252;52.540;13.290;2022-12-07T12:53:48;5.00;99.90
6439;DHT22;3252;52.540;13.290;2022-12-07T12:56:14;5.00;99.90
6439;DHT22;3252;52.540;13.290;2022-12-07T12:58:30;5.00;99.90
6439;DHT22;3252;52.540;13.290;2022-12-07T13:00:33;5.00;99.90
6439;DHT22;3252;52.540;13.290;2022-12-07T13:02:37;5.00;99.90
6439;DHT22;3252;52.540;13.290;2022-12-07T13:04:58;5.10;99.90
6439;DHT22;3252;52.540;13.290;2022-12-07T13:07:01;5.10;99.90
6439;DHT22;3252;52.540;13.290;2022-12-07T13:09:19;5.10;99.90
6439;DHT22;3252;52.540;13.290;2022-12-07T13:11:28;5.00;99.90
6439;DHT22;3252;52.540;13.290;2022-12-07T13:13:33;5.10;99.90
6439;DHT22;3252;52.540;13.290;2022-12-07T13:15:37;5.20;99.90
6439;DHT22;3252;52.540;13.290;2022-12-07T13:18:23;5.20;99.90
6439;DHT22;3252;52.540;13.290;2022-12-07T13:20:50;5.30;99.90
6439;DHT22;3252;52.540;13.290;2022-12-07T13:22:53;5.20;99.90
6439;DHT22;3252;52.540;13.290;2022-12-07T13:25:05;5.20;99.90
6439;DHT22;3252;52.540;13.290;2022-12-07T13:27:11;5.20;99.90
6439;DHT22;3252;52.540;13.290;2022-12-07T13:29:15;5.20;99.90
6439;DHT22;3252;52.540;13.290;2022-12-07T13:31:39;5.10;99.90
6439;DHT22;3252;52.540;13.290;2022-12-07T13:33:45;5.10;99.90
6439;DHT22;3252;52.540;13.290;2022-12-07T13:35:48;5.10;99.90
6439;DHT22;3252;52.540;13.290;2022-12-07T13:37:55;5.20;99.90
6439;DHT22;3252;52.540;13.290;2022-12-07T13:39:59;5.10;99.90
6439;DHT22;3252;52.540;13.290;2022-12-07T13:42:11;5.10;99.90
6439;DHT22;3252;52.540;13.290;2022-12-07T13:44:17;5.10;99.90
6439;DHT22;3252;52.540;13.290;2022-12-07T13:46:26;5.10;99.90
6439;DHT22;3252;52.540;13.290;2022-12-07T13:48:35;5.10;99.90
6439;DHT22;3252;52.540;13.290;2022-12-07T13:50:52;5.10;99.90
6439;DHT22;3252;52.540;13.290;2022-12-07T13:52:56;5.10;99.90